sensor_id;sensor_type;location;lat;lon;timestamp;P1;durP1;ratioP1;P2;durP2;ratioP2
14268;SDS011;7218;51.480;7.006;2022-08-21T00:00:07;8.10;;;3.42;;
14268;SDS011;7218;51.480;7.006;2022-08-21T00:02:35;6.57;;;3.40;;
14268;SDS011;7218;51.480;7.006;2022-08-21T00:05:02;7.63;;;3.63;;
14268;SDS011;7218;51.480;7.006;2022-08-21T00:07:29;6.18;;;3.50;;
14268;SDS011;7218;51.480;7.006;2022-08-21T00:09:56;7.82;;;3.70;;
14268;SDS011;7218;51.480;7.006;2022-08-21T00:12:23;6.20;;;3.72;;
14268;SDS011;7218;51.480;7.006;2022-08-21T00:14:51;6.20;;;3.30;;
14268;SDS011;7218;51.480;7.006;2022-08-21T00:17:17;7.18;;;3.47;;
14268;SDS011;7218;51.480;7.006;2022-08-21T00:19:44;10.48;;;3.60;;
14268;SDS011;7218;51.480;7.006;2022-08-21T00:22:11;7.40;;;3.05;;
14268;SDS011;7218;51.480;7.006;2022-08-21T00:24:37;6.97;;;2.97;;
14268;SDS011;7218;51.480;7.006;2022-08-21T00:27:04;6.90;;;3.40;;
14268;SDS011;7218;51.480;7.006;2022-08-21T00:29:30;7.68;;;3.42;;
14268;SDS011;7218;51.480;7.006;2022-08-21T00:31:58;6.22;;;3.35;;
14268;SDS011;7218;51.480;7.006;2022-08-21T00:34:24;7.40;;;3.50;;
14268;SDS011;7218;51.480;7.006;2022-08-21T00:36:51;8.73;;;3.60;;
14268;SDS011;7218;51.480;7.006;2022-08-21T00:39:17;6.53;;;3.10;;
14268;SDS011;7218;51.480;7.006;2022-08-21T00:41:44;9.45;;;3.53;;
14268;SDS011;7218;51.480;7.006;2022-08-21T00:44:12;5.70;;;3.22;;
14268;SDS011;7218;51.480;7.006;2022-08-21T00:46:40;6.68;;;3.78;;
14268;SDS011;7218;51.480;7.006;2022-08-21T00:49:08;6.75;;;3.25;;
14268;SDS011;7218;51.480;7.006;2022-08-21T00:51:38;6.93;;;3.17;;
14268;SDS011;7218;51.480;7.006;2022-08-21T00:54:08;5.95;;;3.35;;
14268;SDS011;7218;51.480;7.006;2022-08-21T00:56:36;6.80;;;3.38;;
14268;SDS011;7218;51.480;7.006;2022-08-21T00:59:03;7.93;;;3.45;;
14268;SDS011;7218;51.480;7.006;2022-08-21T01:01:30;6.72;;;3.30;;
14268;SDS011;7218;51.480;7.006;2022-08-21T01:03:56;8.48;;;3.92;;
14268;SDS011;7218;51.480;7.006;2022-08-21T01:06:24;8.63;;;3.80;;
14268;SDS011;7218;51.480;7.006;2022-08-21T01:08:50;6.18;;;3.28;;
14268;SDS011;7218;51.480;7.006;2022-08-21T01:11:17;6.18;;;3.90;;
14268;SDS011;7218;51.480;7.006;2022-08-21T01:13:44;5.65;;;3.65;;
14268;SDS011;7218;51.480;7.006;2022-08-21T01:16:13;8.13;;;4.20;;
14268;SDS011;7218;51.480;7.006;2022-08-21T01:18:41;7.28;;;3.80;;
14268;SDS011;7218;51.480;7.006;2022-08-21T01:21:10;9.55;;;3.72;;
14268;SDS011;7218;51.480;7.006;2022-08-21T01:23:39;9.68;;;3.90;;
14268;SDS011;7218;51.480;7.006;2022-08-21T01:26:09;6.50;;;4.03;;
14268;SDS011;7218;51.480;7.006;2022-08-21T01:28:37;6.28;;;3.65;;
14268;SDS011;7218;51.480;7.006;2022-08-21T01:31:07;9.93;;;3.90;;
14268;SDS011;7218;51.480;7.006;2022-08-21T01:33:36;8.68;;;4.25;;
14268;SDS011;7218;51.480;7.006;2022-08-21T01:36:03;7.53;;;3.70;;
14268;SDS011;7218;51.480;7.006;2022-08-21T01:38:31;6.32;;;3.80;;
14268;SDS011;7218;51.480;7.006;2022-08-21T01:40:59;8.90;;;4.00;;
14268;SDS011;7218;51.480;7.006;2022-08-21T01:43:25;5.75;;;3.95;;
14268;SDS011;7218;51.480;7.006;2022-08-21T01:45:52;6.25;;;4.05;;
14268;SDS011;7218;51.480;7.006;2022-08-21T01:48:18;6.80;;;3.83;;
14268;SDS011;7218;51.480;7.006;2022-08-21T01:50:45;8.52;;;4.03;;
14268;SDS011;7218;51.480;7.006;2022-08-21T01:53:11;7.53;;;4.47;;
14268;SDS011;7218;51.480;7.006;2022-08-21T01:55:39;9.75;;;3.85;;
14268;SDS011;7218;51.480;7.006;2022-08-21T01:58:06;8.30;;;4.00;;
14268;SDS011;7218;51.480;7.006;2022-08-21T02:00:32;6.28;;;3.97;;
14268;SDS011;7218;51.480;7.006;2022-08-21T02:02:59;6.00;;;3.72;;
14268;SDS011;7218;51.480;7.006;2022-08-21T02:05:25;6.35;;;3.80;;
14268;SDS011;7218;51.480;7.006;2022-08-21T02:07:52;8.98;;;3.85;;
14268;SDS011;7218;51.480;7.006;2022-08-21T02:10:20;7.88;;;4.20;;
14268;SDS011;7218;51.480;7.006;2022-08-21T02:12:50;7.88;;;4.00;;
14268;SDS011;7218;51.480;7.006;2022-08-21T02:15:16;8.90;;;4.75;;
14268;SDS011;7218;51.480;7.006;2022-08-21T02:17:44;7.90;;;4.50;;
14268;SDS011;7218;51.480;7.006;2022-08-21T02:20:15;8.77;;;4.30;;
14268;SDS011;7218;51.480;7.006;2022-08-21T02:22:44;5.63;;;3.72;;
14268;SDS011;7218;51.480;7.006;2022-08-21T02:25:11;7.38;;;4.30;;
14268;SDS011;7218;51.480;7.006;2022-08-21T02:27:38;6.40;;;4.45;;
14268;SDS011;7218;51.480;7.006;2022-08-21T02:30:09;5.80;;;4.05;;
14268;SDS011;7218;51.480;7.006;2022-08-21T02:32:37;9.75;;;4.20;;
14268;SDS011;7218;51.480;7.006;2022-08-21T02:35:04;8.32;;;4.70;;
14268;SDS011;7218;51.480;7.006;2022-08-21T02:37:31;9.20;;;4.60;;
14268;SDS011;7218;51.480;7.006;2022-08-21T02:39:58;9.80;;;4.85;;
14268;SDS011;7218;51.480;7.006;2022-08-21T02:42:26;7.07;;;4.60;;
14268;SDS011;7218;51.480;7.006;2022-08-21T02:44:52;7.03;;;4.70;;
14268;SDS011;7218;51.480;7.006;2022-08-21T02:47:20;6.63;;;4.55;;
14268;SDS011;7218;51.480;7.006;2022-08-21T02:49:46;7.32;;;4.60;;
14268;SDS011;7218;51.480;7.006;2022-08-21T02:52:13;6.55;;;4.20;;
14268;SDS011;7218;51.480;7.006;2022-08-21T02:54:39;7.18;;;4.65;;
14268;SDS011;7218;51.480;7.006;2022-08-21T02:57:06;5.75;;;4.50;;
14268;SDS011;7218;51.480;7.006;2022-08-21T02:59:33;7.20;;;4.80;;
14268;SDS011;7218;51.480;7.006;2022-08-21T03:01:59;7.50;;;4.93;;
14268;SDS011;7218;51.480;7.006;2022-08-21T03:04:27;6.43;;;4.45;;
14268;SDS011;7218;51.480;7.006;2022-08-21T03:06:53;8.27;;;4.82;;
14268;SDS011;7218;51.480;7.006;2022-08-21T03:09:20;9.75;;;5.00;;
14268;SDS011;7218;51.480;7.006;2022-08-21T03:11:46;7.47;;;4.47;;
14268;SDS011;7218;51.480;7.006;2022-08-21T03:14:13;8.13;;;4.55;;
14268;SDS011;7218;51.480;7.006;2022-08-21T03:16:39;7.32;;;4.93;;
14268;SDS011;7218;51.480;7.006;2022-08-21T03:19:07;8.00;;;4.80;;
14268;SDS011;7218;51.480;7.006;2022-08-21T03:21:34;7.05;;;4.72;;
14268;SDS011;7218;51.480;7.006;2022-08-21T03:24:01;7.00;;;4.65;;
14268;SDS011;7218;51.480;7.006;2022-08-21T03:26:29;9.38;;;4.93;;
14268;SDS011;7218;51.480;7.006;2022-08-21T03:28:56;10.18;;;5.20;;
14268;SDS011;7218;51.480;7.006;2022-08-21T03:31:22;7.97;;;4.65;;
14268;SDS011;7218;51.480;7.006;2022-08-21T03:33:49;6.07;;;4.45;;
14268;SDS011;7218;51.480;7.006;2022-08-21T03:36:15;12.10;;;4.80;;
14268;SDS011;7218;51.480;7.006;2022-08-21T03:38:44;8.57;;;4.82;;
14268;SDS011;7218;51.480;7.006;2022-08-21T03:41:10;7.07;;;4.20;;
14268;SDS011;7218;51.480;7.006;2022-08-21T03:43:37;9.20;;;4.45;;
14268;SDS011;7218;51.480;7.006;2022-08-21T03:46:04;8.32;;;4.50;;
14268;SDS011;7218;51.480;7.006;2022-08-21T03:48:31;7.97;;;4.63;;
14268;SDS011;7218;51.480;7.006;2022-08-21T03:51:00;7.70;;;4.72;;
14268;SDS011;7218;51.480;7.006;2022-08-21T03:53:27;8.60;;;4.80;;
14268;SDS011;7218;51.480;7.006;2022-08-21T03:55:55;6.80;;;4.30;;
14268;SDS011;7218;51.480;7.006;2022-08-21T03:58:22;9.60;;;4.75;;
14268;SDS011;7218;51.480;7.006;2022-08-21T04:00:51;6.97;;;4.35;;
14268;SDS011;7218;51.480;7.006;2022-08-21T04:03:19;6.70;;;4.38;;
14268;SDS011;7218;51.480;7.006;2022-08-21T04:05:46;7.25;;;4.88;;
14268;SDS011;7218;51.480;7.006;2022-08-21T04:08:13;7.63;;;5.28;;
14268;SDS011;7218;51.480;7.006;2022-08-21T04:10:42;7.95;;;4.70;;
14268;SDS011;7218;51.480;7.006;2022-08-21T04:13:12;8.07;;;5.13;;
14268;SDS011;7218;51.480;7.006;2022-08-21T04:15:39;6.93;;;4.95;;
14268;SDS011;7218;51.480;7.006;2022-08-21T04:18:06;8.38;;;5.15;;
14268;SDS011;7218;51.480;7.006;2022-08-21T04:20:34;6.97;;;4.93;;
14268;SDS011;7218;51.480;7.006;2022-08-21T04:23:01;6.00;;;4.93;;
14268;SDS011;7218;51.480;7.006;2022-08-21T04:25:28;8.07;;;5.30;;
14268;SDS011;7218;51.480;7.006;2022-08-21T04:27:54;7.35;;;5.03;;
14268;SDS011;7218;51.480;7.006;2022-08-21T04:30:22;6.57;;;4.63;;
14268;SDS011;7218;51.480;7.006;2022-08-21T04:32:49;10.82;;;4.90;;
14268;SDS011;7218;51.480;7.006;2022-08-21T04:35:17;9.60;;;4.88;;
14268;SDS011;7218;51.480;7.006;2022-08-21T04:37:45;9.63;;;5.15;;
14268;SDS011;7218;51.480;7.006;2022-08-21T04:40:12;10.13;;;4.90;;
14268;SDS011;7218;51.480;7.006;2022-08-21T04:42:41;8.88;;;5.00;;
14268;SDS011;7218;51.480;7.006;2022-08-21T04:45:14;9.55;;;4.45;;
14268;SDS011;7218;51.480;7.006;2022-08-21T04:47:46;8.63;;;5.18;;
14268;SDS011;7218;51.480;7.006;2022-08-21T04:50:13;8.95;;;4.97;;
14268;SDS011;7218;51.480;7.006;2022-08-21T04:52:39;9.85;;;5.65;;
14268;SDS011;7218;51.480;7.006;2022-08-21T04:55:06;9.85;;;5.50;;
14268;SDS011;7218;51.480;7.006;2022-08-21T04:57:33;8.52;;;5.20;;
14268;SDS011;7218;51.480;7.006;2022-08-21T05:00:00;9.38;;;5.30;;
14268;SDS011;7218;51.480;7.006;2022-08-21T05:02:27;9.55;;;5.10;;
14268;SDS011;7218;51.480;7.006;2022-08-21T05:04:55;10.88;;;5.82;;
14268;SDS011;7218;51.480;7.006;2022-08-21T05:07:23;10.50;;;5.53;;
14268;SDS011;7218;51.480;7.006;2022-08-21T05:09:54;12.57;;;7.22;;
14268;SDS011;7218;51.480;7.006;2022-08-21T05:12:21;12.32;;;7.75;;
14268;SDS011;7218;51.480;7.006;2022-08-21T05:14:48;12.82;;;7.35;;
14268;SDS011;7218;51.480;7.006;2022-08-21T05:17:14;16.08;;;7.65;;
14268;SDS011;7218;51.480;7.006;2022-08-21T05:19:41;12.98;;;8.32;;
14268;SDS011;7218;51.480;7.006;2022-08-21T05:22:09;14.82;;;9.23;;
14268;SDS011;7218;51.480;7.006;2022-08-21T05:24:35;13.05;;;8.95;;
14268;SDS011;7218;51.480;7.006;2022-08-21T05:27:03;14.10;;;9.82;;
14268;SDS011;7218;51.480;7.006;2022-08-21T05:29:32;16.60;;;9.93;;
14268;SDS011;7218;51.480;7.006;2022-08-21T05:31:59;12.27;;;9.15;;
14268;SDS011;7218;51.480;7.006;2022-08-21T05:34:26;15.02;;;9.63;;
14268;SDS011;7218;51.480;7.006;2022-08-21T05:36:52;14.13;;;9.95;;
14268;SDS011;7218;51.480;7.006;2022-08-21T05:39:20;15.32;;;9.60;;
14268;SDS011;7218;51.480;7.006;2022-08-21T05:41:46;15.18;;;9.63;;
14268;SDS011;7218;51.480;7.006;2022-08-21T05:44:14;17.17;;;9.65;;
14268;SDS011;7218;51.480;7.006;2022-08-21T05:46:40;11.52;;;8.57;;
14268;SDS011;7218;51.480;7.006;2022-08-21T05:49:07;14.60;;;8.80;;
14268;SDS011;7218;51.480;7.006;2022-08-21T05:51:33;12.38;;;8.75;;
14268;SDS011;7218;51.480;7.006;2022-08-21T05:54:00;13.30;;;8.27;;
14268;SDS011;7218;51.480;7.006;2022-08-21T05:56:28;12.82;;;8.30;;
14268;SDS011;7218;51.480;7.006;2022-08-21T05:58:55;15.95;;;7.88;;
14268;SDS011;7218;51.480;7.006;2022-08-21T06:01:21;13.77;;;7.68;;
14268;SDS011;7218;51.480;7.006;2022-08-21T06:03:48;11.25;;;6.90;;
14268;SDS011;7218;51.480;7.006;2022-08-21T06:06:14;14.15;;;7.05;;
14268;SDS011;7218;51.480;7.006;2022-08-21T06:08:40;11.35;;;6.30;;
14268;SDS011;7218;51.480;7.006;2022-08-21T06:11:08;11.32;;;5.97;;
14268;SDS011;7218;51.480;7.006;2022-08-21T06:13:36;16.00;;;6.38;;
14268;SDS011;7218;51.480;7.006;2022-08-21T06:16:04;11.43;;;6.10;;
14268;SDS011;7218;51.480;7.006;2022-08-21T06:18:32;10.80;;;5.78;;
14268;SDS011;7218;51.480;7.006;2022-08-21T06:20:59;11.10;;;5.93;;
14268;SDS011;7218;51.480;7.006;2022-08-21T06:23:26;13.10;;;6.07;;
14268;SDS011;7218;51.480;7.006;2022-08-21T06:25:52;11.27;;;5.85;;
14268;SDS011;7218;51.480;7.006;2022-08-21T06:28:19;10.88;;;6.30;;
14268;SDS011;7218;51.480;7.006;2022-08-21T06:30:47;12.52;;;6.30;;
14268;SDS011;7218;51.480;7.006;2022-08-21T06:33:13;13.52;;;6.85;;
14268;SDS011;7218;51.480;7.006;2022-08-21T06:35:40;12.88;;;5.93;;
14268;SDS011;7218;51.480;7.006;2022-08-21T06:38:07;13.18;;;6.43;;
14268;SDS011;7218;51.480;7.006;2022-08-21T06:40:34;11.82;;;6.80;;
14268;SDS011;7218;51.480;7.006;2022-08-21T06:43:04;9.95;;;6.00;;
14268;SDS011;7218;51.480;7.006;2022-08-21T06:45:32;13.15;;;6.05;;
14268;SDS011;7218;51.480;7.006;2022-08-21T06:48:00;12.52;;;5.95;;
14268;SDS011;7218;51.480;7.006;2022-08-21T06:50:27;10.88;;;6.25;;
14268;SDS011;7218;51.480;7.006;2022-08-21T06:52:58;13.63;;;6.28;;
14268;SDS011;7218;51.480;7.006;2022-08-21T06:55:25;11.18;;;6.07;;
14268;SDS011;7218;51.480;7.006;2022-08-21T06:57:52;11.80;;;6.22;;
14268;SDS011;7218;51.480;7.006;2022-08-21T07:00:19;13.27;;;5.88;;
14268;SDS011;7218;51.480;7.006;2022-08-21T07:02:45;11.45;;;6.28;;
14268;SDS011;7218;51.480;7.006;2022-08-21T07:05:13;12.00;;;5.88;;
14268;SDS011;7218;51.480;7.006;2022-08-21T07:07:40;13.68;;;6.05;;
14268;SDS011;7218;51.480;7.006;2022-08-21T07:10:07;11.15;;;5.85;;
14268;SDS011;7218;51.480;7.006;2022-08-21T07:12:34;13.32;;;5.70;;
14268;SDS011;7218;51.480;7.006;2022-08-21T07:15:00;9.88;;;5.97;;
14268;SDS011;7218;51.480;7.006;2022-08-21T07:17:27;11.00;;;5.65;;
14268;SDS011;7218;51.480;7.006;2022-08-21T07:19:53;13.23;;;5.65;;
14268;SDS011;7218;51.480;7.006;2022-08-21T07:22:21;7.68;;;4.63;;
14268;SDS011;7218;51.480;7.006;2022-08-21T07:24:48;11.75;;;5.25;;
14268;SDS011;7218;51.480;7.006;2022-08-21T07:27:15;9.00;;;5.10;;
14268;SDS011;7218;51.480;7.006;2022-08-21T07:29:42;9.23;;;4.93;;
14268;SDS011;7218;51.480;7.006;2022-08-21T07:32:08;10.27;;;4.90;;
14268;SDS011;7218;51.480;7.006;2022-08-21T07:34:35;8.70;;;4.70;;
14268;SDS011;7218;51.480;7.006;2022-08-21T07:37:01;10.30;;;4.60;;
14268;SDS011;7218;51.480;7.006;2022-08-21T07:39:29;12.48;;;4.90;;
14268;SDS011;7218;51.480;7.006;2022-08-21T07:41:56;8.07;;;4.10;;
14268;SDS011;7218;51.480;7.006;2022-08-21T07:44:22;8.00;;;3.78;;
14268;SDS011;7218;51.480;7.006;2022-08-21T07:46:49;9.75;;;4.80;;
14268;SDS011;7218;51.480;7.006;2022-08-21T07:49:15;8.00;;;4.35;;
14268;SDS011;7218;51.480;7.006;2022-08-21T07:51:42;9.02;;;3.88;;
14268;SDS011;7218;51.480;7.006;2022-08-21T07:54:08;13.25;;;4.35;;
14268;SDS011;7218;51.480;7.006;2022-08-21T07:56:36;9.20;;;3.83;;
14268;SDS011;7218;51.480;7.006;2022-08-21T07:59:02;7.45;;;3.65;;
14268;SDS011;7218;51.480;7.006;2022-08-21T08:01:29;20.50;;;4.50;;
14268;SDS011;7218;51.480;7.006;2022-08-21T08:03:56;9.95;;;3.85;;
14268;SDS011;7218;51.480;7.006;2022-08-21T08:06:22;8.23;;;3.40;;
14268;SDS011;7218;51.480;7.006;2022-08-21T08:08:49;7.68;;;3.38;;
14268;SDS011;7218;51.480;7.006;2022-08-21T08:11:15;8.10;;;3.28;;
14268;SDS011;7218;51.480;7.006;2022-08-21T08:13:44;8.38;;;3.58;;
14268;SDS011;7218;51.480;7.006;2022-08-21T08:16:13;9.00;;;3.05;;
14268;SDS011;7218;51.480;7.006;2022-08-21T08:18:40;7.22;;;2.80;;
14268;SDS011;7218;51.480;7.006;2022-08-21T08:21:07;8.60;;;3.10;;
14268;SDS011;7218;51.480;7.006;2022-08-21T08:23:35;9.63;;;3.20;;
14268;SDS011;7218;51.480;7.006;2022-08-21T08:26:01;7.47;;;2.95;;
14268;SDS011;7218;51.480;7.006;2022-08-21T08:28:28;8.82;;;3.20;;
14268;SDS011;7218;51.480;7.006;2022-08-21T08:30:57;8.38;;;3.03;;
14268;SDS011;7218;51.480;7.006;2022-08-21T08:33:24;8.75;;;3.35;;
14268;SDS011;7218;51.480;7.006;2022-08-21T08:35:51;8.23;;;3.25;;
14268;SDS011;7218;51.480;7.006;2022-08-21T08:38:19;6.60;;;3.15;;
14268;SDS011;7218;51.480;7.006;2022-08-21T08:40:47;5.00;;;2.50;;
14268;SDS011;7218;51.480;7.006;2022-08-21T08:43:19;10.00;;;2.90;;
14268;SDS011;7218;51.480;7.006;2022-08-21T08:45:46;7.75;;;2.60;;
14268;SDS011;7218;51.480;7.006;2022-08-21T08:48:19;7.00;;;2.80;;
14268;SDS011;7218;51.480;7.006;2022-08-21T08:50:57;6.93;;;2.92;;
14268;SDS011;7218;51.480;7.006;2022-08-21T08:53:27;8.05;;;3.05;;
14268;SDS011;7218;51.480;7.006;2022-08-21T08:55:58;7.13;;;2.33;;
14268;SDS011;7218;51.480;7.006;2022-08-21T08:58:28;4.53;;;2.47;;
14268;SDS011;7218;51.480;7.006;2022-08-21T09:00:57;6.30;;;2.42;;
14268;SDS011;7218;51.480;7.006;2022-08-21T09:03:26;7.70;;;2.45;;
14268;SDS011;7218;51.480;7.006;2022-08-21T09:05:55;7.15;;;2.28;;
14268;SDS011;7218;51.480;7.006;2022-08-21T09:08:29;6.05;;;2.15;;
14268;SDS011;7218;51.480;7.006;2022-08-21T09:11:03;5.65;;;2.47;;
14268;SDS011;7218;51.480;7.006;2022-08-21T09:13:39;5.20;;;2.30;;
14268;SDS011;7218;51.480;7.006;2022-08-21T09:16:13;6.00;;;2.10;;
14268;SDS011;7218;51.480;7.006;2022-08-21T09:18:54;5.80;;;2.15;;
14268;SDS011;7218;51.480;7.006;2022-08-21T09:21:31;7.18;;;2.50;;
14268;SDS011;7218;51.480;7.006;2022-08-21T09:24:09;4.00;;;2.20;;
14268;SDS011;7218;51.480;7.006;2022-08-21T09:26:45;5.65;;;2.40;;
14268;SDS011;7218;51.480;7.006;2022-08-21T09:29:16;5.15;;;2.00;;
14268;SDS011;7218;51.480;7.006;2022-08-21T09:31:46;4.15;;;1.80;;
14268;SDS011;7218;51.480;7.006;2022-08-21T09:34:23;2.13;;;1.80;;
14268;SDS011;7218;51.480;7.006;2022-08-21T09:36:51;5.25;;;1.75;;
14268;SDS011;7218;51.480;7.006;2022-08-21T09:39:22;4.20;;;1.73;;
14268;SDS011;7218;51.480;7.006;2022-08-21T09:41:54;4.35;;;2.15;;
14268;SDS011;7218;51.480;7.006;2022-08-21T09:44:24;6.35;;;2.08;;
14268;SDS011;7218;51.480;7.006;2022-08-21T09:46:52;3.35;;;1.90;;
14268;SDS011;7218;51.480;7.006;2022-08-21T09:49:27;3.58;;;1.80;;
14268;SDS011;7218;51.480;7.006;2022-08-21T09:51:55;6.95;;;2.22;;
14268;SDS011;7218;51.480;7.006;2022-08-21T09:54:24;2.63;;;1.73;;
14268;SDS011;7218;51.480;7.006;2022-08-21T09:56:56;5.90;;;1.90;;
14268;SDS011;7218;51.480;7.006;2022-08-21T09:59:42;3.30;;;1.83;;
14268;SDS011;7218;51.480;7.006;2022-08-21T10:02:22;3.55;;;2.10;;
14268;SDS011;7218;51.480;7.006;2022-08-21T10:04:53;4.82;;;1.90;;
14268;SDS011;7218;51.480;7.006;2022-08-21T10:07:22;5.60;;;1.98;;
14268;SDS011;7218;51.480;7.006;2022-08-21T10:09:58;5.13;;;1.90;;
14268;SDS011;7218;51.480;7.006;2022-08-21T10:12:27;2.28;;;1.52;;
14268;SDS011;7218;51.480;7.006;2022-08-21T10:15:06;4.35;;;1.77;;
14268;SDS011;7218;51.480;7.006;2022-08-21T10:17:43;2.95;;;1.55;;
14268;SDS011;7218;51.480;7.006;2022-08-21T10:20:19;2.58;;;1.42;;
14268;SDS011;7218;51.480;7.006;2022-08-21T10:23:02;3.90;;;1.70;;
14268;SDS011;7218;51.480;7.006;2022-08-21T10:25:35;3.67;;;1.60;;
14268;SDS011;7218;51.480;7.006;2022-08-21T10:28:09;3.08;;;1.40;;
14268;SDS011;7218;51.480;7.006;2022-08-21T10:30:45;3.55;;;1.60;;
14268;SDS011;7218;51.480;7.006;2022-08-21T10:33:19;3.33;;;1.60;;
14268;SDS011;7218;51.480;7.006;2022-08-21T10:35:56;4.35;;;1.70;;
14268;SDS011;7218;51.480;7.006;2022-08-21T10:41:23;4.05;;;1.50;;
14268;SDS011;7218;51.480;7.006;2022-08-21T10:43:59;3.70;;;1.60;;
14268;SDS011;7218;51.480;7.006;2022-08-21T10:46:38;2.33;;;1.55;;
14268;SDS011;7218;51.480;7.006;2022-08-21T10:49:17;2.80;;;1.50;;
14268;SDS011;7218;51.480;7.006;2022-08-21T10:51:54;5.28;;;1.70;;
14268;SDS011;7218;51.480;7.006;2022-08-21T10:54:38;3.70;;;1.63;;
14268;SDS011;7218;51.480;7.006;2022-08-21T10:57:16;5.05;;;1.48;;
14268;SDS011;7218;51.480;7.006;2022-08-21T10:59:55;3.08;;;1.42;;
14268;SDS011;7218;51.480;7.006;2022-08-21T11:02:27;3.65;;;1.50;;
14268;SDS011;7218;51.480;7.006;2022-08-21T11:04:59;3.22;;;1.50;;
14268;SDS011;7218;51.480;7.006;2022-08-21T11:07:33;4.57;;;1.92;;
14268;SDS011;7218;51.480;7.006;2022-08-21T11:10:05;3.45;;;1.48;;
14268;SDS011;7218;51.480;7.006;2022-08-21T11:12:40;2.65;;;1.40;;
14268;SDS011;7218;51.480;7.006;2022-08-21T11:15:11;4.55;;;1.60;;
14268;SDS011;7218;51.480;7.006;2022-08-21T11:17:50;3.92;;;1.63;;
14268;SDS011;7218;51.480;7.006;2022-08-21T11:20:21;1.73;;;1.40;;
14268;SDS011;7218;51.480;7.006;2022-08-21T11:22:56;3.67;;;1.50;;
14268;SDS011;7218;51.480;7.006;2022-08-21T11:25:27;5.93;;;2.28;;
14268;SDS011;7218;51.480;7.006;2022-08-21T11:28:00;3.40;;;1.83;;
14268;SDS011;7218;51.480;7.006;2022-08-21T11:30:33;6.03;;;1.67;;
14268;SDS011;7218;51.480;7.006;2022-08-21T11:33:14;4.82;;;1.75;;
14268;SDS011;7218;51.480;7.006;2022-08-21T11:35:54;3.28;;;1.60;;
14268;SDS011;7218;51.480;7.006;2022-08-21T11:38:32;3.65;;;1.75;;
14268;SDS011;7218;51.480;7.006;2022-08-21T11:41:11;3.65;;;1.60;;
14268;SDS011;7218;51.480;7.006;2022-08-21T11:43:46;3.78;;;1.50;;
14268;SDS011;7218;51.480;7.006;2022-08-21T11:46:25;3.92;;;1.50;;
14268;SDS011;7218;51.480;7.006;2022-08-21T11:49:03;2.92;;;1.40;;
14268;SDS011;7218;51.480;7.006;2022-08-21T11:51:44;2.78;;;1.55;;
14268;SDS011;7218;51.480;7.006;2022-08-21T11:54:19;4.65;;;1.98;;
14268;SDS011;7218;51.480;7.006;2022-08-21T11:56:53;3.25;;;1.60;;
14268;SDS011;7218;51.480;7.006;2022-08-21T11:59:32;3.90;;;1.80;;
14268;SDS011;7218;51.480;7.006;2022-08-21T12:02:05;4.35;;;1.90;;
14268;SDS011;7218;51.480;7.006;2022-08-21T12:04:41;5.25;;;1.90;;
14268;SDS011;7218;51.480;7.006;2022-08-21T12:07:11;2.70;;;1.50;;
14268;SDS011;7218;51.480;7.006;2022-08-21T12:09:51;3.63;;;2.00;;
14268;SDS011;7218;51.480;7.006;2022-08-21T12:12:24;4.80;;;2.40;;
14268;SDS011;7218;51.480;7.006;2022-08-21T12:15:04;3.92;;;2.42;;
14268;SDS011;7218;51.480;7.006;2022-08-21T12:17:54;6.32;;;4.40;;
14268;SDS011;7218;51.480;7.006;2022-08-21T12:20:26;3.22;;;1.83;;
14268;SDS011;7218;51.480;7.006;2022-08-21T12:23:05;3.38;;;1.73;;
14268;SDS011;7218;51.480;7.006;2022-08-21T12:25:44;5.63;;;2.40;;
14268;SDS011;7218;51.480;7.006;2022-08-21T12:28:24;2.83;;;1.67;;
14268;SDS011;7218;51.480;7.006;2022-08-21T12:30:51;3.58;;;2.10;;
14268;SDS011;7218;51.480;7.006;2022-08-21T12:33:19;1.75;;;1.17;;
14268;SDS011;7218;51.480;7.006;2022-08-21T12:35:49;2.05;;;1.23;;
14268;SDS011;7218;51.480;7.006;2022-08-21T12:38:19;4.80;;;2.00;;
14268;SDS011;7218;51.480;7.006;2022-08-21T12:40:52;4.05;;;2.60;;
14268;SDS011;7218;51.480;7.006;2022-08-21T12:43:24;4.03;;;1.75;;
14268;SDS011;7218;51.480;7.006;2022-08-21T12:45:55;2.05;;;1.40;;
14268;SDS011;7218;51.480;7.006;2022-08-21T12:48:25;2.65;;;1.40;;
14268;SDS011;7218;51.480;7.006;2022-08-21T12:50:55;2.85;;;1.10;;
14268;SDS011;7218;51.480;7.006;2022-08-21T12:53:26;1.67;;;1.02;;
14268;SDS011;7218;51.480;7.006;2022-08-21T12:56:01;2.92;;;1.33;;
14268;SDS011;7218;51.480;7.006;2022-08-21T12:58:29;1.45;;;1.17;;
14268;SDS011;7218;51.480;7.006;2022-08-21T13:00:58;2.28;;;1.30;;
14268;SDS011;7218;51.480;7.006;2022-08-21T13:03:27;2.40;;;1.38;;
14268;SDS011;7218;51.480;7.006;2022-08-21T13:05:55;2.30;;;1.10;;
14268;SDS011;7218;51.480;7.006;2022-08-21T13:08:21;1.58;;;1.20;;
14268;SDS011;7218;51.480;7.006;2022-08-21T13:10:55;2.90;;;1.20;;
14268;SDS011;7218;51.480;7.006;2022-08-21T13:13:26;1.38;;;1.00;;
14268;SDS011;7218;51.480;7.006;2022-08-21T13:15:56;2.17;;;1.10;;
14268;SDS011;7218;51.480;7.006;2022-08-21T13:18:25;2.30;;;1.70;;
14268;SDS011;7218;51.480;7.006;2022-08-21T13:21:02;2.50;;;1.42;;
14268;SDS011;7218;51.480;7.006;2022-08-21T13:23:31;3.72;;;1.60;;
14268;SDS011;7218;51.480;7.006;2022-08-21T13:25:59;2.10;;;1.08;;
14268;SDS011;7218;51.480;7.006;2022-08-21T13:28:31;2.97;;;1.40;;
14268;SDS011;7218;51.480;7.006;2022-08-21T13:30:59;4.32;;;2.40;;
14268;SDS011;7218;51.480;7.006;2022-08-21T13:33:27;5.80;;;3.45;;
14268;SDS011;7218;51.480;7.006;2022-08-21T13:35:57;5.00;;;4.03;;
14268;SDS011;7218;51.480;7.006;2022-08-21T13:38:31;3.38;;;2.53;;
14268;SDS011;7218;51.480;7.006;2022-08-21T13:41:03;2.78;;;2.00;;
14268;SDS011;7218;51.480;7.006;2022-08-21T13:43:35;3.72;;;2.90;;
14268;SDS011;7218;51.480;7.006;2022-08-21T13:46:06;2.88;;;2.15;;
14268;SDS011;7218;51.480;7.006;2022-08-21T13:48:36;2.40;;;1.40;;
14268;SDS011;7218;51.480;7.006;2022-08-21T13:51:03;5.72;;;4.75;;
14268;SDS011;7218;51.480;7.006;2022-08-21T13:53:33;5.97;;;3.92;;
14268;SDS011;7218;51.480;7.006;2022-08-21T13:56:03;3.63;;;2.05;;
14268;SDS011;7218;51.480;7.006;2022-08-21T13:58:31;2.83;;;1.50;;
14268;SDS011;7218;51.480;7.006;2022-08-21T14:01:15;2.17;;;1.40;;
14268;SDS011;7218;51.480;7.006;2022-08-21T14:03:45;2.83;;;1.48;;
14268;SDS011;7218;51.480;7.006;2022-08-21T14:06:16;2.05;;;1.20;;
14268;SDS011;7218;51.480;7.006;2022-08-21T14:08:47;2.40;;;1.50;;
14268;SDS011;7218;51.480;7.006;2022-08-21T14:11:19;3.30;;;1.45;;
14268;SDS011;7218;51.480;7.006;2022-08-21T14:13:47;13.95;;;10.57;;
14268;SDS011;7218;51.480;7.006;2022-08-21T14:16:18;6.75;;;3.95;;
14268;SDS011;7218;51.480;7.006;2022-08-21T14:18:48;5.40;;;3.60;;
14268;SDS011;7218;51.480;7.006;2022-08-21T14:21:23;3.65;;;1.60;;
14268;SDS011;7218;51.480;7.006;2022-08-21T14:24:05;3.03;;;1.40;;
14268;SDS011;7218;51.480;7.006;2022-08-21T14:26:37;5.32;;;3.50;;
14268;SDS011;7218;51.480;7.006;2022-08-21T14:29:11;3.33;;;2.03;;
14268;SDS011;7218;51.480;7.006;2022-08-21T14:31:40;1.98;;;1.80;;
14268;SDS011;7218;51.480;7.006;2022-08-21T14:34:07;3.63;;;2.70;;
14268;SDS011;7218;51.480;7.006;2022-08-21T14:36:36;4.88;;;1.63;;
14268;SDS011;7218;51.480;7.006;2022-08-21T14:39:03;11.45;;;8.25;;
14268;SDS011;7218;51.480;7.006;2022-08-21T14:41:29;2.88;;;2.00;;
14268;SDS011;7218;51.480;7.006;2022-08-21T14:43:57;3.97;;;1.45;;
14268;SDS011;7218;51.480;7.006;2022-08-21T14:46:25;2.42;;;1.70;;
14268;SDS011;7218;51.480;7.006;2022-08-21T14:48:53;4.85;;;2.30;;
14268;SDS011;7218;51.480;7.006;2022-08-21T14:51:20;6.82;;;4.50;;
14268;SDS011;7218;51.480;7.006;2022-08-21T14:53:46;9.45;;;5.47;;
14268;SDS011;7218;51.480;7.006;2022-08-21T14:56:13;11.68;;;7.15;;
14268;SDS011;7218;51.480;7.006;2022-08-21T14:58:41;3.80;;;2.38;;
14268;SDS011;7218;51.480;7.006;2022-08-21T15:01:12;5.05;;;1.88;;
14268;SDS011;7218;51.480;7.006;2022-08-21T15:03:39;4.65;;;1.33;;
14268;SDS011;7218;51.480;7.006;2022-08-21T15:06:07;1.52;;;1.17;;
14268;SDS011;7218;51.480;7.006;2022-08-21T15:08:34;3.28;;;1.45;;
14268;SDS011;7218;51.480;7.006;2022-08-21T15:11:01;3.53;;;1.40;;
14268;SDS011;7218;51.480;7.006;2022-08-21T15:13:29;2.53;;;1.20;;